9.92C
небольшой дождь
небольшой дождь
Дата и времяТемператураДавление, мм рт.ст.Влажность, %Осадки
МинимумМаксимум
16.08.2022 20:009.92C9.92C75786небольшой дождь
16.08.2022 23:009.2C9.68C75887небольшой дождь
17.08.2022 02:008.79C9.17C75881небольшой дождь
17.08.2022 05:007.04C7.04C75985пасмурно
17.08.2022 08:008.67C8.67C76074пасмурно
17.08.2022 11:009.48C9.48C76067небольшой дождь
17.08.2022 14:0010.6C10.6C76160небольшой дождь
17.08.2022 17:008.65C8.65C76275небольшой дождь
17.08.2022 20:006.3C6.3C76288небольшой дождь
17.08.2022 23:006.58C6.58C76290небольшой дождь
18.08.2022 02:006.65C6.65C76292пасмурно
18.08.2022 05:006.79C6.79C76392пасмурно
18.08.2022 08:008.4C8.4C76386пасмурно
18.08.2022 11:0012.67C12.67C76471пасмурно
18.08.2022 14:0012.65C12.65C76476пасмурно
18.08.2022 17:0017.1C17.1C76359небольшой дождь
18.08.2022 20:0013.62C13.62C76472небольшой дождь
18.08.2022 23:0012.94C12.94C76473облачно с прояснениями
19.08.2022 02:0011.21C11.21C76474пасмурно
19.08.2022 05:008.68C8.68C76580пасмурно
19.08.2022 08:0011.3C11.3C76559переменная облачность
19.08.2022 11:0014.15C14.15C76546небольшая облачность
19.08.2022 14:0015.88C15.88C76441переменная облачность
19.08.2022 17:0015.71C15.71C76542переменная облачность
19.08.2022 20:0011.76C11.76C76555небольшая облачность
19.08.2022 23:009.8C9.8C76562облачно с прояснениями
20.08.2022 02:008.52C8.52C76464пасмурно
20.08.2022 05:007.99C7.99C76471облачно с прояснениями
20.08.2022 08:0012.91C12.91C76378переменная облачность
20.08.2022 11:0015.01C15.01C76274облачно с прояснениями
20.08.2022 14:0016.18C16.18C76270пасмурно
20.08.2022 17:0012.31C12.31C76193небольшой дождь
20.08.2022 20:0012.32C12.32C76097небольшой дождь
20.08.2022 23:0011.73C11.73C76190небольшой дождь
21.08.2022 02:008.36C8.36C76289пасмурно
21.08.2022 05:007.26C7.26C76289пасмурно
21.08.2022 08:007.29C7.29C76286пасмурно
21.08.2022 11:007.23C7.23C76480пасмурно
21.08.2022 14:0010.65C10.65C76463пасмурно
21.08.2022 17:0012.26C12.26C76555пасмурно
Дата и время наблюдения: 16.08.2022 20:17:30